• Join FlightAware (Why Join?)
  • Login
  • US Flag 
02:50AM EDT


 

Airport Tracker/Info


-or-


 

Live Flight TrackerFlight Track Log ✈ AAL2345 ✈ 09-Jun-2013 ✈ KORD - KDFW

Flight Track Log - Related Links

Times and Time Zones

All times are in EDT time to prevent confusion due to time zone crossing. See the AAL2345 flight status page for this flight to view local times or setup timezone preferences in your user account.

Time Position Orientation Groundspeed Altitude Reporting Facility
EDT Latitude Longitude Course Direction KTS MPH feet Rate Location/Type
07:53PM 41.9500 -87.9167 249° West 178 205 1,500  Level Chicago TRACON
07:55PM 41.9011 -88.0911 249° West 263 303 6,500 2,340 Climbing Chicago Center
07:56PM 41.8975 -88.1956 267° West 278 320 9,500 2,340 Climbing Chicago Center
07:57PM 41.8856 -88.3011 261° West 289 333 11,400 1,740 Climbing Chicago Center
07:58PM 41.8658 -88.4242 258° West 327 376 13,100 2,160 Climbing Chicago Center
07:59PM 41.8400 -88.5844 258° West 361 415 16,100 2,460 Climbing Chicago Center
08:00PM 41.8183 -88.7181 258° West 372 428 18,400 1,920 Climbing Chicago Center
08:01PM 41.7950 -88.8578 257° West 383 441 20,100 1,740 Climbing Chicago Center
08:02PM 41.7714 -89.0322 260° West 398 458 22,100 1,500 Climbing Chicago Center
08:03PM 41.7497 -89.1814 259° West 408 470 23,300 1,020 Climbing Chicago Center
08:04PM 41.7289 -89.3369 260° West 425 489 24,300 1,080 Climbing Chicago Center
08:05PM 41.7117 -89.4944 262° West 429 494 25,600 1,080 Climbing Chicago Center
08:07PM 41.7006 -89.6614 265° West 434 499 26,600 1,020 Climbing Chicago Center
08:08PM 41.6858 -89.8244 263° West 443 510 27,800 660 Climbing Chicago Center
08:09PM 41.6722 -89.9856 264° West 441 507 28,000 60 Climbing Chicago Center
08:10PM 41.6558 -90.1775 264° West 437 503 28,000 420 Level Chicago Center
08:11PM 41.6403 -90.3397 263° West 443 510 28,900 900 Climbing Chicago Center
08:12PM 41.6261 -90.4978 263° West 434 499 29,900 780 Climbing Chicago Center
08:13PM 41.6100 -90.6736 263° West 429 494 30,600 900 Climbing Chicago Center
08:14PM 41.5944 -90.8314 263° West 431 496 31,800 660 Climbing Chicago Center
08:15PM 41.5803 -90.9842 263° West 420 483 32,000 60 Climbing Chicago Center
08:16PM 41.5656 -91.1406 263° West 426 490 32,000  Level Chicago Center
08:17PM 41.5506 -91.2953 263° West 423 487 32,000  Level Chicago Center
08:18PM 41.5322 -91.4814 263° West 423 487 32,000  Level Chicago Center
08:19PM 41.5181 -91.6378 263° West 425 489 32,000  Level Chicago Center
08:20PM 41.4989 -91.7892 260° West 427 491 32,000  Level Chicago Center
08:21PM 41.4111 -91.8903 221° Southwest 423 487 32,000  Level Chicago Center
08:22PM 41.3369 -92.0133 231° Southwest 426 490 32,000  Level Chicago Center
08:23PM 41.2497 -92.1636 232° Southwest 430 495 32,000  Level Chicago Center
08:24PM 41.1811 -92.2808 232° Southwest 433 498 32,000  Level Chicago Center
08:25PM 41.1078 -92.4067 232° Southwest 434 499 32,000  Level Chicago Center
08:26PM 41.0342 -92.5347 233° Southwest 439 505 32,000  Level Chicago Center
08:27PM 40.9464 -92.6856 232° Southwest 437 503 32,000  Level Chicago Center
08:28PM 40.8731 -92.8117 232° Southwest 438 504 32,000  Level Chicago Center
08:29PM 40.8000 -92.9372 232° Southwest 438 504 32,000  Level Chicago Center
08:30PM 40.7258 -93.0592 231° Southwest 434 499 32,000  Level Chicago Center
08:31PM 40.6367 -93.2047 231° Southwest 432 497 32,000  Level Chicago Center
08:32PM 40.6239 -93.2269 233° Southwest 430 495 32,000  Level Kansas City Center
08:33PM 40.5483 -93.3475 231° Southwest 432 497 32,000  Level Kansas City Center
08:34PM 40.4742 -93.4692 231° Southwest 431 496 32,000  Level Kansas City Center
08:35PM 40.3828 -93.6153 231° Southwest 436 502 32,000  Level Kansas City Center
08:36PM 40.3067 -93.7408 232° Southwest 441 507 32,000  Level Kansas City Center
08:37PM 40.2294 -93.8636 231° Southwest 442 509 32,000  Level Kansas City Center
08:38PM 40.1511 -93.9886 231° Southwest 446 513 32,000  Level Kansas City Center
08:39PM 40.0567 -94.1278 228° Southwest 452 520 32,000  Level Kansas City Center
08:40PM 39.9800 -94.2486 230° Southwest 451 519 32,000  Level Kansas City Center
08:41PM 39.8922 -94.3881 231° Southwest 448 516 32,000  Level Kansas City Center
08:42PM 39.8164 -94.5083 231° Southwest 449 517 32,000  Level Kansas City Center
08:43PM 39.7406 -94.6261 230° Southwest 445 512 32,000  Level Kansas City Center
08:44PM 39.6525 -94.7642 230° Southwest 446 513 32,000  Level Kansas City Center
08:45PM 39.5769 -94.8822 230° Southwest 445 512 32,000  Level Kansas City Center
08:46PM 39.4883 -95.0169 230° Southwest 442 509 32,000  Level Kansas City Center
08:47PM 39.4053 -95.1444 230° Southwest 443 510 32,000  Level Kansas City Center
08:48PM 39.3272 -95.2644 230° Southwest 439 505 32,000  Level Kansas City Center
08:49PM 39.2400 -95.3972 230° Southwest 452 520 32,000  Level Kansas City Center
08:50PM 39.1608 -95.5158 229° Southwest 446 513 32,000  Level Kansas City Center
08:51PM 39.0714 -95.6186 222° Southwest 465 535 32,000  Level Kansas City Center
08:52PM 38.9292 -95.6747 197° South 486 559 32,000  Level Kansas City Center
08:53PM 38.8131 -95.7414 204° Southwest 480 552 32,000  Level Kansas City Center
08:54PM 38.6783 -95.8175 204° Southwest 475 547 32,000  Level Kansas City Center
08:55PM 38.5642 -95.8825 204° Southwest 473 544 32,000  Level Kansas City Center
08:56PM 38.4503 -95.9478 204° Southwest 469 540 32,000  Level Kansas City Center
08:57PM 38.3164 -96.0222 204° Southwest 470 541 32,000  Level Kansas City Center
08:58PM 38.2011 -96.0886 204° Southwest 474 545 32,000  Level Kansas City Center
08:59PM 38.0825 -96.1550 204° Southwest 472 543 32,000  Level Kansas City Center
09:00PM 37.9636 -96.2222 204° Southwest 468 539 32,000  Level Kansas City Center
09:01PM 37.8450 -96.2875 203° Southwest 465 535 32,000  Level Kansas City Center
09:02PM 37.7272 -96.3542 204° Southwest 463 533 32,000  Level Kansas City Center
09:03PM 37.5825 -96.4339 204° Southwest 463 533 32,000  Level Kansas City Center
09:04PM 37.4653 -96.4972 203° Southwest 464 534 32,000  Level Kansas City Center
09:06PM 37.3464 -96.5639 204° Southwest 465 535 32,000  Level Kansas City Center
09:07PM 37.2275 -96.6275 203° Southwest 464 534 32,000  Level Kansas City Center
09:08PM 37.1086 -96.6908 203° Southwest 464 534 32,000  Level Kansas City Center
09:09PM 36.9903 -96.7547 203° Southwest 463 533 32,000  Level Kansas City Center
09:10PM 36.8681 -96.8200 203° Southwest 467 537 32,000  Level Kansas City Center
09:11PM 36.7278 -96.8947 203° Southwest 465 535 32,000  Level Kansas City Center
09:12PM 36.6086 -96.9597 204° Southwest 467 537 32,000  Level Kansas City Center
09:13PM 36.4861 -97.0233 203° Southwest 468 539 32,000  Level Kansas City Center
09:14PM 36.3672 -97.0864 203° Southwest 466 536 32,000  Level Kansas City Center
09:15PM 36.2467 -97.1489 203° Southwest 468 539 32,000  Level Kansas City Center
09:16PM 36.1272 -97.2128 203° Southwest 469 540 32,000  Level Kansas City Center
09:17PM 36.0075 -97.2744 203° Southwest 468 539 32,000  Level Kansas City Center
09:18PM 35.8858 -97.3378 203° Southwest 474 545 32,000  Level Kansas City Center
09:19PM 35.7642 -97.4006 203° Southwest 475 547 32,000  Level Kansas City Center
09:20PM 35.6211 -97.4764 203° Southwest 473 544 32,000  Level Kansas City Center
09:21PM 35.5250 -97.5283 204° Southwest 480 552 32,000  Level Fort Worth Center
09:22PM 35.3997 -97.5944 203° Southwest 480 552 32,000  Level Fort Worth Center
09:23PM 35.2664 -97.6067 184° South 480 552 32,000  Level Fort Worth Center
09:24PM 35.1308 -97.5836 172° South 475 547 32,000  Level Fort Worth Center
09:25PM 34.9972 -97.5631 173° South 481 554 32,000  Level Fort Worth Center
09:26PM 34.8639 -97.5425 173° South 481 554 32,000 -660 Level Fort Worth Center
09:27PM 34.7325 -97.5247 174° South 481 554 30,700 -1,800 Descending Fort Worth Center
09:28PM 34.6031 -97.5044 173° South 481 554 28,400 -2,700 Descending Fort Worth Center
09:29PM 34.4739 -97.4892 174° South 481 554 25,300 -2,220 Descending Fort Worth Center
09:30PM 34.3464 -97.5117 188° South 476 548 24,000 -660 Descending Fort Worth Center
09:31PM 34.2192 -97.5342 188° South 476 548 24,000 -900 Level Fort Worth Center
09:32PM 34.0814 -97.5464 184° South 462 532 22,300 -2,100 Descending Fort Worth Center
09:33PM 33.9561 -97.5661 187° South 462 532 19,900 -2,220 Descending Fort Worth Center
09:34PM 33.8353 -97.5836 187° South 456 525 17,900 -2,160 Descending Fort Worth Center
09:35PM 33.7161 -97.5983 186° South 441 507 15,600 -2,100 Descending Fort Worth Center
09:36PM 33.6158 -97.6131 187° South 418 481 13,700 -2,040 Descending Fort Worth Center
09:37PM 33.4950 -97.6028 176° South 393 452 11,600 -1,500 Descending Fort Worth Center
09:38PM 33.4219 -97.5403 144° Southeast 366 421 10,700 -960 Descending Fort Worth Center
09:39PM 33.3364 -97.4806 150° Southeast 340 391 9,700 -1,140 Descending Fort Worth Center
09:40PM 33.2697 -97.4333 149° Southeast 315 362 8,500 -1,440 Descending Fort Worth Center
09:41PM 33.1967 -97.3736 146° Southeast 296 341 6,900 -1,620 Descending Fort Worth Center
09:41PM 33.1667 -97.3333 132° Southeast 279 321 6,100 -1,260 Descending Dallas / Fort Worth TRACON
09:42PM 33.1000 -97.2833 148° Southeast 229 264 4,900 -1,320 Descending Dallas / Fort Worth TRACON
09:43PM 33.0858 -97.2672 136° Southeast 252 290 4,200 -1,800 Descending Fort Worth Center